createdAt,value
2022-10-03T00:00:17.105Z,1.52
2022-10-03T00:03:19.221Z,1.60
2022-10-03T00:06:35.203Z,1.63
2022-10-03T00:09:25.021Z,1.60
2022-10-03T00:12:19.819Z,1.38
2022-10-03T00:14:59.075Z,1.55
2022-10-03T00:18:03.426Z,1.67
2022-10-03T00:21:19.481Z,1.40
2022-10-03T00:24:18.665Z,1.48
2022-10-03T00:27:28.535Z,1.73
2022-10-03T00:30:16.178Z,2.15
2022-10-03T00:33:21.300Z,1.83
2022-10-03T00:36:21.936Z,1.80
2022-10-03T00:39:25.433Z,2.33
2022-10-03T00:42:31.832Z,2.33
2022-10-03T00:45:16.908Z,2.17
2022-10-03T00:48:40.515Z,2.53
2022-10-03T00:51:19.987Z,2.40
2022-10-03T00:54:08.833Z,1.90
2022-10-03T00:56:56.441Z,2.65
2022-10-03T01:00:13.435Z,2.33
2022-10-03T01:02:46.959Z,2.95
2022-10-03T01:05:52.492Z,2.80
2022-10-03T01:12:10.677Z,2.63
2022-10-03T01:18:27.319Z,2.60
2022-10-03T01:21:09.752Z,3.28
2022-10-03T01:24:24.151Z,2.90
2022-10-03T01:27:02.287Z,3.15
2022-10-03T01:30:02.575Z,3.05
2022-10-03T01:32:39.050Z,2.80
2022-10-03T01:35:32.585Z,3.38
2022-10-03T01:38:40.709Z,3.80
2022-10-03T01:41:23.706Z,3.35
2022-10-03T01:44:04.953Z,3.65
2022-10-03T01:46:49.235Z,3.30
2022-10-03T01:49:41.887Z,3.30
2022-10-03T01:52:35.722Z,3.33
2022-10-03T01:55:37.529Z,3.15
2022-10-03T01:58:11.895Z,3.35
2022-10-03T02:00:56.487Z,4.18
2022-10-03T02:03:35.867Z,2.83
2022-10-03T02:06:06.726Z,2.90
2022-10-03T02:09:10.752Z,3.15
2022-10-03T02:11:51.790Z,3.55
2022-10-03T02:14:47.291Z,3.45
2022-10-03T02:18:03.065Z,2.70
2022-10-03T02:20:44.810Z,3.15
2022-10-03T02:23:38.437Z,3.97
2022-10-03T02:26:46.622Z,3.53
2022-10-03T02:29:50.019Z,3.53
2022-10-03T02:32:41.453Z,3.60
2022-10-03T02:35:46.690Z,3.47
2022-10-03T02:39:08.517Z,3.97
2022-10-03T02:42:23.726Z,5.18
2022-10-03T02:45:23.484Z,4.68
2022-10-03T02:48:19.855Z,4.60
2022-10-03T02:51:34.823Z,4.57
2022-10-03T02:54:47.962Z,4.40
2022-10-03T02:57:43.753Z,4.20
2022-10-03T03:00:21.822Z,4.28
2022-10-03T03:03:38.298Z,4.80
2022-10-03T03:06:35.267Z,5.28
2022-10-03T03:09:26.025Z,4.95
2022-10-03T03:12:40.365Z,5.43
2022-10-03T04:27:38.065Z,5.38
2022-10-03T04:30:33.124Z,4.97
2022-10-03T04:33:25.432Z,5.05
2022-10-03T04:36:33.687Z,5.05
2022-10-03T04:39:42.513Z,5.55
2022-10-03T04:42:37.687Z,5.63
2022-10-03T04:45:57.066Z,4.88
2022-10-03T04:48:46.725Z,4.35
2022-10-03T04:51:41.447Z,4.82
2022-10-03T04:54:24.163Z,5.05
2022-10-03T04:57:28.130Z,5.20
2022-10-03T05:00:23.665Z,5.20
2022-10-03T05:03:01.859Z,5.32
2022-10-03T05:05:55.445Z,5.85
2022-10-03T05:08:56.014Z,5.22
2022-10-03T05:11:56.237Z,5.75
2022-10-03T05:14:41.423Z,5.40
2022-10-03T05:17:45.716Z,5.60
2022-10-03T05:20:53.163Z,5.88
2022-10-03T05:24:15.628Z,4.97
2022-10-03T05:27:27.614Z,6.25
2022-10-03T05:30:07.803Z,5.60
2022-10-03T05:33:08.938Z,5.78
2022-10-03T05:36:18.630Z,6.10
2022-10-03T05:39:25.930Z,5.30
2022-10-03T06:15:59.713Z,6.35
2022-10-03T06:22:47.647Z,5.70
2022-10-03T06:29:25.091Z,6.30
2022-10-03T06:32:17.269Z,6.13
2022-10-03T06:35:26.731Z,6.53
2022-10-03T06:38:08.365Z,5.70
2022-10-03T06:41:04.386Z,5.53
2022-10-03T06:44:15.391Z,5.85
2022-10-03T07:38:23.275Z,6.40
2022-10-03T07:41:26.231Z,6.70
2022-10-03T07:44:35.874Z,6.07
2022-10-03T07:47:26.911Z,6.15
2022-10-03T07:50:25.742Z,5.93
2022-10-03T07:53:27.522Z,6.07
2022-10-03T07:56:20.593Z,6.03
2022-10-03T07:59:21.110Z,6.35
2022-10-03T08:02:27.174Z,6.10
2022-10-03T08:05:40.466Z,6.32
2022-10-03T08:11:32.183Z,5.25
2022-10-03T08:14:18.175Z,5.25
2022-10-03T08:24:17.261Z,5.35
2022-10-03T08:27:24.425Z,4.95
2022-10-03T08:45:54.689Z,4.82
2022-10-03T09:07:17.128Z,4.90
2022-10-03T09:10:04.717Z,4.70
2022-10-03T09:45:11.227Z,3.90
2022-10-03T09:48:35.887Z,3.78
2022-10-03T09:51:29.960Z,4.18
2022-10-03T09:54:05.123Z,3.53
2022-10-03T09:56:55.083Z,3.78
2022-10-03T10:00:13.779Z,3.50
2022-10-03T10:03:16.160Z,3.15
2022-10-03T10:06:02.246Z,3.28
2022-10-03T10:08:50.722Z,3.25
2022-10-03T10:11:22.368Z,3.15
2022-10-03T10:14:45.963Z,2.47
2022-10-03T10:17:49.749Z,3.30
2022-10-03T10:20:31.150Z,3.00
2022-10-03T10:23:39.121Z,3.33
2022-10-03T10:26:43.768Z,2.53
2022-10-03T10:29:28.910Z,3.08
2022-10-03T10:32:46.195Z,2.95
2022-10-03T10:36:12.800Z,3.33
2022-10-03T10:39:33.209Z,3.72
2022-10-03T10:48:48.019Z,2.80
2022-10-03T10:51:51.814Z,3.65
2022-10-03T11:17:08.610Z,1.85
2022-10-03T11:20:29.712Z,1.73
2022-10-03T11:23:41.097Z,2.22
2022-10-03T11:26:44.030Z,2.03
2022-10-03T11:36:20.076Z,2.42
2022-10-03T11:39:11.420Z,2.45
2022-10-03T11:42:00.771Z,2.40
2022-10-03T11:45:00.034Z,1.90
2022-10-03T11:47:44.710Z,2.22
2022-10-03T11:50:46.007Z,2.30
2022-10-03T11:53:41.163Z,2.28
2022-10-03T11:56:39.527Z,2.35
2022-10-03T11:59:47.956Z,2.00
2022-10-03T12:02:49.423Z,1.77
2022-10-03T12:06:23.468Z,2.08
2022-10-03T12:09:14.188Z,2.00
2022-10-03T12:11:56.481Z,2.33
2022-10-03T12:14:44.845Z,1.80
2022-10-03T12:17:16.002Z,2.70
2022-10-03T12:20:25.131Z,2.38
2022-10-03T12:23:15.170Z,2.40
2022-10-03T12:25:44.675Z,2.40
2022-10-03T12:28:29.705Z,2.22
2022-10-03T12:31:06.680Z,3.00
2022-10-03T12:33:48.373Z,2.70
2022-10-03T12:36:43.677Z,2.15
2022-10-03T12:39:43.591Z,2.22
2022-10-03T12:43:00.742Z,2.33
2022-10-03T12:45:54.694Z,2.10
2022-10-03T12:48:44.153Z,2.42
2022-10-03T12:51:21.579Z,2.30
2022-10-03T12:54:17.123Z,2.40
2022-10-03T12:57:28.527Z,2.03
2022-10-03T13:00:29.315Z,1.85
2022-10-03T13:03:32.695Z,1.77
2022-10-03T13:06:17.526Z,2.03
2022-10-03T13:09:18.999Z,2.42
2022-10-03T13:11:54.883Z,4.25
2022-10-03T13:15:00.187Z,2.60
2022-10-03T13:17:53.381Z,2.58
2022-10-03T13:20:34.267Z,2.28
2022-10-03T13:23:10.762Z,1.75
2022-10-03T13:25:45.773Z,2.22
2022-10-03T13:28:41.294Z,2.05
2022-10-03T13:31:15.283Z,1.85
2022-10-03T13:33:48.266Z,2.08
2022-10-03T13:36:36.881Z,1.80
2022-10-03T13:39:35.840Z,2.10
2022-10-03T13:42:41.009Z,2.40
2022-10-03T13:45:26.366Z,2.40
2022-10-03T13:48:05.233Z,2.92
2022-10-03T13:50:43.451Z,2.10
2022-10-03T13:53:25.903Z,3.28
2022-10-03T13:55:58.402Z,2.65
2022-10-03T13:58:58.565Z,2.58
2022-10-03T14:02:17.353Z,2.80
2022-10-03T14:05:27.319Z,2.63
2022-10-03T14:08:06.374Z,2.80
2022-10-03T14:11:19.538Z,2.67
2022-10-03T14:17:01.991Z,2.50
2022-10-03T14:20:21.949Z,2.05
2022-10-03T14:23:23.306Z,2.95
2022-10-03T14:26:18.197Z,2.28
2022-10-03T14:29:09.037Z,1.85
2022-10-03T14:31:45.050Z,2.00
2022-10-03T14:34:27.162Z,2.00
2022-10-03T14:37:36.659Z,1.90
2022-10-03T14:40:17.839Z,1.90
2022-10-03T14:43:13.586Z,1.83
2022-10-03T14:45:46.559Z,2.08
2022-10-03T14:48:19.715Z,1.60
2022-10-03T14:50:51.028Z,2.60
2022-10-03T14:53:20.514Z,2.05
2022-10-03T14:56:06.668Z,2.50
2022-10-03T14:58:44.476Z,2.65
2022-10-03T15:01:20.657Z,2.35
2022-10-03T15:04:14.060Z,1.45
2022-10-03T15:06:54.479Z,1.60
2022-10-03T15:09:50.354Z,1.70
2022-10-03T15:12:24.677Z,1.90
2022-10-03T15:15:24.478Z,1.92
2022-10-03T15:18:19.093Z,2.25
2022-10-03T15:20:48.841Z,1.73
2022-10-03T15:23:21.544Z,1.52
2022-10-03T15:25:53.148Z,1.55
2022-10-03T15:28:29.450Z,2.07
2022-10-03T15:31:14.540Z,1.33
2022-10-03T15:33:49.585Z,1.70
2022-10-03T15:36:24.748Z,1.35
2022-10-03T15:39:24.886Z,2.05
2022-10-03T15:42:48.852Z,1.55
2022-10-03T15:45:29.650Z,1.80
2022-10-03T15:48:08.141Z,1.42
2022-10-03T15:50:44.122Z,1.77
2022-10-03T15:53:37.015Z,1.73
2022-10-03T15:56:15.484Z,1.48
2022-10-03T15:58:50.180Z,1.75
2022-10-03T16:01:25.758Z,1.55
2022-10-03T16:04:02.341Z,1.50
2022-10-03T16:06:59.871Z,1.38
2022-10-03T16:09:42.230Z,1.40
2022-10-03T16:12:52.406Z,1.52
2022-10-03T16:16:04.983Z,1.13
2022-10-03T16:18:43.094Z,1.40
2022-10-03T16:21:16.199Z,1.60
2022-10-03T16:23:45.939Z,1.45
2022-10-03T16:26:27.665Z,1.08
2022-10-03T16:29:23.165Z,1.20
2022-10-03T16:32:07.132Z,1.67
2022-10-03T16:34:37.068Z,1.88
2022-10-03T16:37:11.795Z,1.60
2022-10-03T16:39:44.893Z,1.38
2022-10-03T16:42:20.759Z,1.70
2022-10-03T16:44:57.113Z,1.40
2022-10-03T16:47:43.147Z,1.67
2022-10-03T16:50:24.870Z,1.83
2022-10-03T16:52:54.184Z,2.47
2022-10-03T16:55:40.961Z,1.95
2022-10-03T16:58:29.428Z,1.58
2022-10-03T17:01:26.394Z,1.55
2022-10-03T17:04:16.001Z,1.50
2022-10-03T17:06:47.620Z,1.90
2022-10-03T17:09:24.517Z,1.73
2022-10-03T17:11:57.449Z,2.25
2022-10-03T17:14:28.273Z,1.80
2022-10-03T17:17:04.834Z,1.90
2022-10-03T17:19:43.088Z,1.83
2022-10-03T17:22:21.251Z,1.98
2022-10-03T17:25:18.275Z,2.20
2022-10-03T17:27:49.734Z,2.40
2022-10-03T17:30:35.415Z,1.65
2022-10-03T17:33:13.176Z,2.10
2022-10-03T17:36:27.650Z,2.50
2022-10-03T17:39:04.891Z,2.20
2022-10-03T17:41:42.979Z,2.25
2022-10-03T17:44:33.750Z,2.47
2022-10-03T17:47:23.654Z,2.53
2022-10-03T17:50:14.941Z,2.55
2022-10-03T17:52:46.002Z,2.55
2022-10-03T17:55:37.903Z,2.75
2022-10-03T17:58:07.894Z,2.72
2022-10-03T18:01:14.977Z,3.20
2022-10-03T18:03:49.774Z,3.08
2022-10-03T18:06:46.655Z,3.38
2022-10-03T18:09:40.675Z,3.95
2022-10-03T18:12:20.354Z,4.10
2022-10-03T18:15:37.800Z,3.53
2022-10-03T18:19:01.724Z,3.20
2022-10-03T18:21:56.994Z,4.32
2022-10-03T18:25:01.422Z,3.53
2022-10-03T18:28:17.633Z,3.50
2022-10-03T18:30:50.735Z,3.85
2022-10-03T18:33:23.521Z,3.72
2022-10-03T18:35:50.863Z,3.78
2022-10-03T18:38:33.614Z,4.20
2022-10-03T18:41:03.055Z,4.13
2022-10-03T18:43:37.059Z,3.97
2022-10-03T18:46:39.765Z,4.40
2022-10-03T18:49:33.557Z,4.22
2022-10-03T18:52:29.951Z,4.72
2022-10-03T18:55:15.155Z,4.72
2022-10-03T18:58:00.295Z,5.00
2022-10-03T19:00:33.856Z,5.15
2022-10-03T19:03:13.495Z,5.15
2022-10-03T19:05:48.880Z,4.45
2022-10-03T19:08:21.480Z,5.00
2022-10-03T19:10:53.899Z,4.85
2022-10-03T19:13:56.655Z,4.43
2022-10-03T19:17:17.658Z,4.75
2022-10-03T19:19:59.945Z,4.97
2022-10-03T19:22:39.199Z,5.22
2022-10-03T19:25:16.918Z,4.78
2022-10-03T19:27:49.859Z,5.30
2022-10-03T19:30:22.117Z,5.32
2022-10-03T19:33:14.121Z,6.13
2022-10-03T19:35:47.606Z,5.03
2022-10-03T19:38:24.514Z,5.75
2022-10-03T19:41:00.244Z,5.13
2022-10-03T19:43:49.522Z,5.65
2022-10-03T19:46:58.361Z,4.80
2022-10-03T19:49:45.673Z,5.57
2022-10-03T19:52:32.870Z,5.38
2022-10-03T19:55:14.931Z,5.75
2022-10-03T19:58:00.088Z,6.38
2022-10-03T20:00:32.832Z,28.45
2022-10-03T20:03:30.186Z,104.90
2022-10-03T20:06:19.084Z,65.93
2022-10-03T20:08:56.567Z,23.02
2022-10-03T20:11:46.487Z,14.57
2022-10-03T20:14:27.096Z,8.38
2022-10-03T20:16:58.847Z,9.88
2022-10-03T20:19:27.866Z,7.07
2022-10-03T20:22:02.663Z,21.95
2022-10-03T20:24:44.656Z,10.40
2022-10-03T20:27:51.020Z,10.95
2022-10-03T20:30:37.454Z,15.07
2022-10-03T20:33:05.519Z,10.63
2022-10-03T20:36:19.917Z,9.38
2022-10-03T20:39:16.120Z,16.17
2022-10-03T20:42:10.794Z,8.80
2022-10-03T20:45:14.378Z,6.65
2022-10-03T20:48:03.972Z,5.88
2022-10-03T20:50:45.523Z,7.45
2022-10-03T20:53:31.587Z,5.88
2022-10-03T20:56:10.549Z,5.20
2022-10-03T20:58:54.013Z,5.20
2022-10-03T21:01:26.153Z,4.07
2022-10-03T21:04:28.452Z,4.70
2022-10-03T21:07:22.678Z,5.23
2022-10-03T21:10:40.090Z,6.00
2022-10-03T21:13:14.307Z,6.32
2022-10-03T21:15:53.668Z,5.95
2022-10-03T21:18:27.450Z,5.63
2022-10-03T21:21:18.159Z,5.10
2022-10-03T21:24:02.126Z,6.03
2022-10-03T21:26:37.648Z,7.57
2022-10-03T21:29:25.607Z,5.28
2022-10-03T21:32:44.883Z,5.32
2022-10-03T21:35:39.056Z,5.22
2022-10-03T21:38:29.362Z,5.15
2022-10-03T21:41:18.011Z,5.50
2022-10-03T21:44:10.788Z,4.88
2022-10-03T21:47:05.936Z,5.35
2022-10-03T21:49:57.303Z,5.47
2022-10-03T21:52:50.330Z,6.70
2022-10-03T21:58:57.525Z,4.63
2022-10-03T22:01:52.660Z,5.72
2022-10-03T22:04:26.154Z,5.82
2022-10-03T22:07:13.945Z,4.75
2022-10-03T22:09:49.203Z,4.60
2022-10-03T22:12:17.473Z,4.63
2022-10-03T22:15:08.511Z,4.97
2022-10-03T22:18:14.948Z,5.10
2022-10-03T22:21:06.093Z,4.05
2022-10-03T22:23:56.266Z,4.45
2022-10-03T22:26:58.751Z,5.50
2022-10-03T22:29:43.745Z,4.63
2022-10-03T22:32:18.480Z,4.13
2022-10-03T22:35:11.346Z,4.28
2022-10-03T22:37:38.954Z,4.07
2022-10-03T22:40:06.414Z,3.47
2022-10-03T22:42:42.580Z,3.88
2022-10-03T22:45:11.869Z,4.07
2022-10-03T22:47:40.220Z,3.50
2022-10-03T22:50:12.270Z,3.75
2022-10-03T22:52:43.005Z,4.53
2022-10-03T22:55:14.472Z,3.80
2022-10-03T22:57:43.438Z,3.60
2022-10-03T23:00:13.497Z,4.15
2022-10-03T23:02:58.602Z,4.35
2022-10-03T23:06:04.365Z,3.47
2022-10-03T23:09:17.118Z,3.80
2022-10-03T23:11:47.914Z,3.85
2022-10-03T23:14:18.046Z,3.92
2022-10-03T23:16:55.425Z,3.25
2022-10-03T23:20:05.214Z,3.90
2022-10-03T23:22:35.325Z,3.00
2022-10-03T23:25:07.273Z,3.67
2022-10-03T23:27:48.483Z,3.50
2022-10-03T23:30:45.426Z,3.85
2022-10-03T23:33:17.135Z,3.90
2022-10-03T23:35:44.319Z,3.10
2022-10-03T23:38:52.239Z,3.55
2022-10-03T23:41:44.142Z,4.30
2022-10-03T23:44:58.336Z,3.95
2022-10-03T23:47:39.063Z,3.55
2022-10-03T23:50:07.788Z,3.90
2022-10-03T23:52:48.769Z,3.35
2022-10-03T23:55:22.332Z,3.83
2022-10-03T23:57:49.228Z,3.60
